createdAt,value
2022-12-25T00:00:16.682Z,8.80
2022-12-25T00:02:48.657Z,8.80
2022-12-25T00:05:18.694Z,8.80
2022-12-25T00:07:47.003Z,8.80
2022-12-25T00:10:15.335Z,8.80
2022-12-25T00:12:43.656Z,8.80
2022-12-25T00:15:12.333Z,8.80
2022-12-25T00:17:40.775Z,8.80
2022-12-25T00:20:10.626Z,8.80
2022-12-25T00:22:40.346Z,8.80
2022-12-25T00:25:09.499Z,8.70
2022-12-25T00:27:37.960Z,8.70
2022-12-25T00:30:08.119Z,8.70
2022-12-25T00:32:37.507Z,8.70
2022-12-25T00:35:07.156Z,8.70
2022-12-25T00:37:35.440Z,8.70
2022-12-25T00:40:05.866Z,8.70
2022-12-25T00:42:34.111Z,8.60
2022-12-25T00:45:02.513Z,8.60
2022-12-25T00:47:31.343Z,8.60
2022-12-25T00:49:59.654Z,8.50
2022-12-25T00:52:27.993Z,8.50
2022-12-25T00:54:56.307Z,8.50
2022-12-25T00:57:26.090Z,8.50
2022-12-25T00:59:54.355Z,8.50
2022-12-25T01:02:25.689Z,8.50
2022-12-25T01:04:56.659Z,8.40
2022-12-25T01:07:27.084Z,8.50
2022-12-25T01:10:13.181Z,8.40
2022-12-25T01:12:44.612Z,8.50
2022-12-25T01:15:14.233Z,8.50
2022-12-25T01:17:43.298Z,8.50
2022-12-25T01:20:14.763Z,8.40
2022-12-25T01:22:44.078Z,8.40
2022-12-25T01:25:13.703Z,8.40
2022-12-25T01:27:43.804Z,8.40
2022-12-25T01:30:13.381Z,8.30
2022-12-25T01:32:41.652Z,8.30
2022-12-25T01:35:10.738Z,8.30
2022-12-25T01:37:39.029Z,8.30
2022-12-25T01:40:09.108Z,8.30
2022-12-25T01:42:37.646Z,8.30
2022-12-25T01:45:40.000Z,8.30
2022-12-25T01:48:16.466Z,8.30
2022-12-25T01:50:48.617Z,8.30
2022-12-25T01:53:17.097Z,8.30
2022-12-25T01:55:49.680Z,8.30
2022-12-25T01:58:19.516Z,8.30
2022-12-25T02:00:49.319Z,8.30
2022-12-25T02:03:18.275Z,8.40
2022-12-25T02:05:48.363Z,8.30
2022-12-25T02:08:19.719Z,8.30
2022-12-25T02:10:48.254Z,8.30
2022-12-25T02:13:20.076Z,8.40
2022-12-25T02:15:59.883Z,8.40
2022-12-25T02:18:38.901Z,8.40
2022-12-25T02:21:36.147Z,8.40
2022-12-25T02:24:51.872Z,8.30
2022-12-25T02:27:47.795Z,8.30
2022-12-25T02:30:16.349Z,8.40
2022-12-25T02:32:50.113Z,8.30
2022-12-25T02:35:25.693Z,8.30
2022-12-25T02:37:59.209Z,8.30
2022-12-25T02:40:32.025Z,8.30
2022-12-25T02:43:24.202Z,8.30
2022-12-25T02:46:28.344Z,8.30
2022-12-25T02:49:17.661Z,8.30
2022-12-25T02:52:13.846Z,8.20
2022-12-25T02:55:04.669Z,8.20
2022-12-25T02:57:55.815Z,8.20
2022-12-25T03:00:43.000Z,8.20
2022-12-25T03:03:31.019Z,8.20
2022-12-25T03:06:22.289Z,8.10
2022-12-25T03:08:53.784Z,8.10
2022-12-25T03:11:33.190Z,8.10
2022-12-25T03:14:19.259Z,8.10
2022-12-25T03:16:53.032Z,8.20
2022-12-25T03:19:42.575Z,8.10
2022-12-25T03:22:38.011Z,8.20
2022-12-25T03:25:25.032Z,8.10
2022-12-25T03:27:56.856Z,8.20
2022-12-25T03:30:47.861Z,8.20
2022-12-25T03:33:45.385Z,8.20
2022-12-25T03:36:22.629Z,8.30
2022-12-25T03:39:18.795Z,8.30
2022-12-25T03:42:10.334Z,8.30
2022-12-25T03:45:03.276Z,8.30
2022-12-25T03:47:54.358Z,8.40
2022-12-25T03:50:47.912Z,8.30
2022-12-25T03:53:40.391Z,8.40
2022-12-25T03:56:26.923Z,8.40
2022-12-25T03:59:23.137Z,8.40
2022-12-25T04:02:10.250Z,8.40
2022-12-25T04:04:56.200Z,8.50
2022-12-25T04:07:43.388Z,8.50
2022-12-25T04:10:29.380Z,8.60
2022-12-25T04:13:15.410Z,8.70
2022-12-25T04:16:01.061Z,8.70
2022-12-25T04:18:47.146Z,8.80
2022-12-25T04:21:32.721Z,8.80
2022-12-25T04:24:19.989Z,8.80
2022-12-25T04:27:05.657Z,8.80
2022-12-25T04:29:51.251Z,8.90
2022-12-25T04:32:36.904Z,8.90
2022-12-25T04:35:23.410Z,8.90
2022-12-25T04:37:51.666Z,8.90
2022-12-25T04:40:22.141Z,8.80
2022-12-25T04:42:51.742Z,8.80
2022-12-25T04:45:20.722Z,8.80
2022-12-25T04:47:48.962Z,8.70
2022-12-25T04:50:17.241Z,8.70
2022-12-25T04:52:45.599Z,8.60
2022-12-25T04:55:13.923Z,8.60
2022-12-25T04:57:43.596Z,8.50
2022-12-25T05:00:13.154Z,8.50
2022-12-25T05:02:41.526Z,8.40
2022-12-25T05:05:10.300Z,8.40
2022-12-25T05:07:38.646Z,8.30
2022-12-25T05:10:08.535Z,8.30
2022-12-25T05:12:37.015Z,8.30
2022-12-25T05:15:07.688Z,8.20
2022-12-25T05:17:35.956Z,8.30
2022-12-25T05:20:05.007Z,8.20
2022-12-25T05:22:33.580Z,8.20
2022-12-25T05:25:01.892Z,8.20
2022-12-25T05:27:30.179Z,8.20
2022-12-25T05:29:58.441Z,8.20
2022-12-25T05:32:28.561Z,8.20
2022-12-25T05:34:56.852Z,8.20
2022-12-25T05:37:25.195Z,8.20
2022-12-25T05:39:53.478Z,8.20
2022-12-25T05:42:21.744Z,8.20
2022-12-25T05:44:50.052Z,8.20
2022-12-25T05:47:18.365Z,8.10
2022-12-25T05:49:48.053Z,8.20
2022-12-25T05:52:16.348Z,8.20
2022-12-25T05:54:45.499Z,8.20
2022-12-25T05:57:13.779Z,8.20
2022-12-25T05:59:42.082Z,8.20
2022-12-25T06:02:10.384Z,8.30
2022-12-25T06:04:38.743Z,8.30
2022-12-25T06:07:08.373Z,8.30
2022-12-25T06:09:36.619Z,8.30
2022-12-25T06:12:05.347Z,8.40
2022-12-25T06:14:34.482Z,8.40
2022-12-25T06:17:02.903Z,8.40
2022-12-25T06:19:31.342Z,8.50
2022-12-25T06:21:59.645Z,8.50
2022-12-25T06:24:29.424Z,8.50
2022-12-25T06:26:57.699Z,8.50
2022-12-25T06:29:27.313Z,8.50
2022-12-25T06:31:57.353Z,8.50
2022-12-25T06:34:26.085Z,8.50
2022-12-25T06:36:54.553Z,8.50
2022-12-25T06:39:22.826Z,8.50
2022-12-25T06:41:52.659Z,8.50
2022-12-25T06:44:20.954Z,8.60
2022-12-25T06:46:49.274Z,8.60
2022-12-25T06:49:17.569Z,8.60
2022-12-25T06:51:48.257Z,8.60
2022-12-25T06:54:16.509Z,8.60
2022-12-25T06:56:44.765Z,8.60
2022-12-25T06:59:14.403Z,8.60
2022-12-25T07:01:49.026Z,8.60
2022-12-25T07:04:22.498Z,8.60
2022-12-25T07:06:50.927Z,8.60
2022-12-25T07:09:19.285Z,8.50
2022-12-25T07:11:47.596Z,8.50
2022-12-25T07:14:24.475Z,8.50
2022-12-25T07:16:53.117Z,8.50
2022-12-25T07:19:21.558Z,8.50
2022-12-25T07:21:49.855Z,8.50
2022-12-25T07:24:21.278Z,8.50
2022-12-25T07:26:50.023Z,8.50
2022-12-25T07:29:20.609Z,8.60
2022-12-25T07:31:49.278Z,8.60
2022-12-25T07:34:19.206Z,8.60
2022-12-25T07:36:48.018Z,8.50
2022-12-25T07:39:17.001Z,8.60
2022-12-25T07:41:45.853Z,8.60
2022-12-25T07:44:14.126Z,8.60
2022-12-25T07:46:44.497Z,8.60
2022-12-25T07:49:13.248Z,8.70
2022-12-25T07:51:41.645Z,8.70
2022-12-25T07:54:10.045Z,8.60
2022-12-25T07:56:38.369Z,8.70
2022-12-25T07:59:06.735Z,8.70
2022-12-25T08:01:35.287Z,8.70
2022-12-25T08:04:05.464Z,8.70
2022-12-25T08:06:36.172Z,8.70
2022-12-25T08:09:07.719Z,8.70
2022-12-25T08:11:36.634Z,8.70
2022-12-25T08:14:07.891Z,8.80
2022-12-25T08:16:39.786Z,8.80
2022-12-25T08:19:09.689Z,8.80
2022-12-25T08:21:38.453Z,8.80
2022-12-25T08:24:08.193Z,8.80
2022-12-25T08:26:36.595Z,8.80
2022-12-25T08:29:05.285Z,8.80
2022-12-25T08:31:37.173Z,8.90
2022-12-25T08:34:09.546Z,8.90
2022-12-25T08:36:38.917Z,9.00
2022-12-25T08:39:07.293Z,9.00
2022-12-25T08:41:36.809Z,9.00
2022-12-25T08:44:05.666Z,9.00
2022-12-25T08:46:34.492Z,9.00
2022-12-25T08:49:03.351Z,9.00
2022-12-25T08:51:34.297Z,9.00
2022-12-25T08:54:02.691Z,9.00
2022-12-25T08:56:31.041Z,9.00
2022-12-25T08:58:59.318Z,9.00
2022-12-25T09:01:30.531Z,9.00
2022-12-25T09:03:58.937Z,9.00
2022-12-25T09:06:27.306Z,8.90
2022-12-25T09:08:57.255Z,9.00
2022-12-25T09:11:25.643Z,8.90
2022-12-25T09:13:54.045Z,9.00
2022-12-25T09:16:24.412Z,9.00
2022-12-25T09:18:52.767Z,9.00
2022-12-25T09:21:21.331Z,8.90
2022-12-25T09:23:49.813Z,8.90
2022-12-25T09:26:22.218Z,8.90
2022-12-25T09:28:52.736Z,8.90
2022-12-25T09:31:23.037Z,8.90
2022-12-25T09:33:52.277Z,8.80
2022-12-25T09:36:23.498Z,8.90
2022-12-25T09:38:52.791Z,8.80
2022-12-25T09:41:33.061Z,8.90
2022-12-25T09:44:07.370Z,8.80
2022-12-25T09:46:42.587Z,8.80
2022-12-25T09:49:20.899Z,8.80
2022-12-25T09:51:56.258Z,8.80
2022-12-25T09:54:43.178Z,8.80
2022-12-25T09:57:16.087Z,8.80
2022-12-25T09:59:47.521Z,8.80
2022-12-25T10:02:48.320Z,8.80
2022-12-25T10:05:58.225Z,8.80
2022-12-25T10:08:48.002Z,8.80
2022-12-25T10:11:29.405Z,8.80
2022-12-25T10:14:15.667Z,8.80
2022-12-25T10:16:54.325Z,8.80
2022-12-25T10:19:37.043Z,8.80
2022-12-25T10:22:14.356Z,8.80
2022-12-25T10:24:49.236Z,8.90
2022-12-25T10:27:28.557Z,8.90
2022-12-25T10:29:58.331Z,8.90
2022-12-25T10:32:26.760Z,8.90
2022-12-25T10:34:55.221Z,8.90
2022-12-25T10:37:23.537Z,8.90
2022-12-25T10:39:52.117Z,8.90
2022-12-25T10:42:40.872Z,8.90
2022-12-25T10:45:11.630Z,8.90
2022-12-25T10:47:42.986Z,8.90
2022-12-25T10:50:18.732Z,8.90
2022-12-25T10:53:01.676Z,8.90
2022-12-25T10:55:30.107Z,8.90
2022-12-25T10:57:59.143Z,9.00
2022-12-25T11:00:32.103Z,9.00
2022-12-25T11:03:01.693Z,9.00
2022-12-25T11:05:33.223Z,8.90
2022-12-25T11:08:04.066Z,9.00
2022-12-25T11:10:36.040Z,9.00
2022-12-25T11:13:07.624Z,8.90
2022-12-25T11:15:40.612Z,9.00
2022-12-25T11:18:22.469Z,9.00
2022-12-25T11:20:53.304Z,9.00
2022-12-25T11:23:24.910Z,8.90
2022-12-25T11:25:58.282Z,9.00
2022-12-25T11:28:28.359Z,8.90
2022-12-25T11:31:03.323Z,8.90
2022-12-25T11:33:37.856Z,8.90
2022-12-25T11:36:17.222Z,9.00
2022-12-25T11:38:46.561Z,9.00
2022-12-25T11:41:20.505Z,9.00
2022-12-25T11:43:53.342Z,9.00
2022-12-25T11:46:28.652Z,9.00
2022-12-25T11:49:02.573Z,9.00
2022-12-25T11:51:35.607Z,9.00
2022-12-25T11:54:19.330Z,9.10
2022-12-25T11:56:48.414Z,9.10
2022-12-25T11:59:26.085Z,9.10
2022-12-25T12:02:01.815Z,9.10
2022-12-25T12:04:43.028Z,9.10
2022-12-25T12:07:24.552Z,9.10
2022-12-25T12:10:02.091Z,9.10
2022-12-25T12:12:43.105Z,9.20
2022-12-25T12:15:28.628Z,9.20
2022-12-25T12:18:09.802Z,9.20
2022-12-25T12:20:38.840Z,9.20
2022-12-25T12:23:17.387Z,9.20
2022-12-25T12:25:47.427Z,9.20
2022-12-25T12:28:24.466Z,9.20
2022-12-25T12:31:03.478Z,9.20
2022-12-25T12:33:38.264Z,9.20
2022-12-25T12:36:08.850Z,9.20
2022-12-25T12:38:39.407Z,9.20
2022-12-25T12:41:10.127Z,9.20
2022-12-25T12:43:42.799Z,9.20
2022-12-25T12:46:24.411Z,9.20
2022-12-25T12:49:17.728Z,9.20
2022-12-25T12:51:46.555Z,9.20
2022-12-25T12:54:21.948Z,9.30
2022-12-25T12:57:01.660Z,9.20
2022-12-25T12:59:40.226Z,9.30
2022-12-25T13:02:58.362Z,9.30
2022-12-25T13:05:39.426Z,9.30
2022-12-25T13:08:33.929Z,9.30
2022-12-25T13:11:20.354Z,9.20
2022-12-25T13:13:52.709Z,9.20
2022-12-25T13:16:31.074Z,9.30
2022-12-25T13:19:02.041Z,9.30
2022-12-25T13:21:32.764Z,9.30
2022-12-25T13:24:04.345Z,9.30
2022-12-25T13:26:32.892Z,9.30
2022-12-25T13:29:02.945Z,9.30
2022-12-25T13:31:35.772Z,9.30
2022-12-25T13:34:07.659Z,9.30
2022-12-25T13:36:41.043Z,9.30
2022-12-25T13:39:11.141Z,9.30
2022-12-25T13:42:02.765Z,9.30
2022-12-25T13:44:41.276Z,9.30
2022-12-25T13:47:17.841Z,9.30
2022-12-25T13:49:47.160Z,9.30
2022-12-25T13:52:21.132Z,9.30
2022-12-25T13:55:01.916Z,9.30
2022-12-25T13:57:36.007Z,9.30
2022-12-25T14:00:08.426Z,9.30
2022-12-25T14:02:38.849Z,9.30
2022-12-25T14:05:26.560Z,9.30
2022-12-25T14:07:59.048Z,9.30
2022-12-25T14:10:31.648Z,9.30
2022-12-25T14:13:05.217Z,9.30
2022-12-25T14:15:36.527Z,9.30
2022-12-25T14:18:05.196Z,9.30
2022-12-25T14:20:40.847Z,9.30
2022-12-25T14:23:17.653Z,9.30
2022-12-25T14:25:48.413Z,9.30
2022-12-25T14:28:21.613Z,9.30
2022-12-25T14:30:50.577Z,9.30
2022-12-25T14:33:22.595Z,9.30
2022-12-25T14:35:52.375Z,9.30
2022-12-25T14:38:29.041Z,9.30
2022-12-25T14:41:02.374Z,9.30
2022-12-25T14:43:32.408Z,9.40
2022-12-25T14:46:04.335Z,9.30
2022-12-25T14:48:34.848Z,9.30
2022-12-25T14:51:09.099Z,9.30
2022-12-25T14:53:42.795Z,9.30
2022-12-25T14:56:11.439Z,9.30
2022-12-25T14:58:50.707Z,9.30
2022-12-25T15:01:23.846Z,9.30
2022-12-25T15:03:52.430Z,9.30
2022-12-25T15:06:24.906Z,9.30
2022-12-25T15:09:00.050Z,9.30
2022-12-25T15:11:29.000Z,9.30
2022-12-25T15:13:57.536Z,9.40
2022-12-25T15:16:28.442Z,9.30
2022-12-25T15:18:57.154Z,9.30
2022-12-25T15:21:29.048Z,9.30
2022-12-25T15:24:00.824Z,9.30
2022-12-25T15:26:32.650Z,9.30
2022-12-25T15:29:01.702Z,9.30
2022-12-25T15:31:33.295Z,9.30
2022-12-25T15:34:07.876Z,9.30
2022-12-25T15:36:36.229Z,9.30
2022-12-25T15:39:05.988Z,9.30
2022-12-25T15:41:55.574Z,9.30
2022-12-25T15:44:25.730Z,9.30
2022-12-25T15:46:54.644Z,9.30
2022-12-25T15:49:23.443Z,9.30
2022-12-25T15:51:51.939Z,9.30
2022-12-25T15:54:21.918Z,9.30
2022-12-25T15:56:53.641Z,9.30
2022-12-25T15:59:23.428Z,9.30
2022-12-25T16:01:55.589Z,9.30
2022-12-25T16:04:26.447Z,9.30
2022-12-25T16:06:55.292Z,9.30
2022-12-25T16:09:26.558Z,9.30
2022-12-25T16:11:54.861Z,9.30
2022-12-25T16:14:23.384Z,9.30
2022-12-25T16:16:51.850Z,9.30
2022-12-25T16:19:20.544Z,9.30
2022-12-25T16:21:49.275Z,9.30
2022-12-25T16:24:17.742Z,9.30
2022-12-25T16:26:48.161Z,9.30
2022-12-25T16:29:16.643Z,9.30
2022-12-25T16:31:45.376Z,9.30
2022-12-25T16:34:14.423Z,9.30
2022-12-25T16:36:43.215Z,9.30
2022-12-25T16:39:11.873Z,9.30
2022-12-25T16:41:42.463Z,9.30
2022-12-25T16:44:12.358Z,9.30
2022-12-25T16:46:42.219Z,9.30
2022-12-25T16:49:10.954Z,9.30
2022-12-25T16:51:39.665Z,9.30
2022-12-25T16:54:09.636Z,9.30
2022-12-25T16:56:38.628Z,9.20
2022-12-25T16:59:07.363Z,9.20
2022-12-25T17:01:38.083Z,9.20
2022-12-25T17:04:06.750Z,9.20
2022-12-25T17:06:35.707Z,9.20
2022-12-25T17:09:05.076Z,9.20
2022-12-25T17:11:34.399Z,9.20
2022-12-25T17:14:05.743Z,9.20
2022-12-25T17:16:37.590Z,9.20
2022-12-25T17:19:16.002Z,9.20
2022-12-25T17:21:44.803Z,9.20
2022-12-25T17:24:13.613Z,9.20
2022-12-25T17:26:44.011Z,9.20
2022-12-25T17:29:15.968Z,9.20
2022-12-25T17:31:50.517Z,9.20
2022-12-25T17:34:18.938Z,9.20
2022-12-25T17:36:47.409Z,9.20
2022-12-25T17:39:16.095Z,9.20
2022-12-25T17:41:44.621Z,9.30
2022-12-25T17:44:13.136Z,9.20
2022-12-25T17:46:42.119Z,9.20
2022-12-25T17:49:17.336Z,9.20
2022-12-25T17:51:47.317Z,9.30
2022-12-25T17:54:16.003Z,9.30
2022-12-25T17:56:44.364Z,9.30
2022-12-25T17:59:18.771Z,9.30
2022-12-25T18:01:49.241Z,9.30
2022-12-25T18:04:19.138Z,9.30
2022-12-25T18:06:48.409Z,9.40
2022-12-25T18:09:16.775Z,9.40
2022-12-25T18:11:45.596Z,9.40
2022-12-25T18:14:17.228Z,9.40
2022-12-25T18:16:47.685Z,9.40
2022-12-25T18:19:19.680Z,9.40
2022-12-25T18:21:48.061Z,9.50
2022-12-25T18:24:16.768Z,9.50
2022-12-25T18:26:45.764Z,9.50
2022-12-25T18:29:14.145Z,9.40
2022-12-25T18:31:42.576Z,9.40
2022-12-25T18:34:10.939Z,9.40
2022-12-25T18:36:40.922Z,9.50
2022-12-25T18:39:09.370Z,9.50
2022-12-25T18:41:57.616Z,9.50
2022-12-25T18:44:25.949Z,9.50
2022-12-25T18:46:54.374Z,9.50
2022-12-25T18:49:22.783Z,9.50
2022-12-25T18:51:52.569Z,9.50
2022-12-25T18:54:21.046Z,9.60
2022-12-25T18:56:53.547Z,9.60
2022-12-25T18:59:22.375Z,9.60
2022-12-25T19:01:52.455Z,9.60
2022-12-25T19:04:21.339Z,9.70
2022-12-25T19:06:52.064Z,9.60
2022-12-25T19:09:20.501Z,9.70
2022-12-25T19:11:48.885Z,9.70
2022-12-25T19:14:17.329Z,9.80
2022-12-25T19:16:45.824Z,9.80
2022-12-25T19:19:14.284Z,9.80
2022-12-25T19:21:43.290Z,9.80
2022-12-25T19:24:13.279Z,9.80
2022-12-25T19:26:44.008Z,9.80
2022-12-25T19:29:13.005Z,9.80
2022-12-25T19:31:42.181Z,9.80
2022-12-25T19:34:12.083Z,9.80
2022-12-25T19:36:41.758Z,9.90
2022-12-25T19:39:13.335Z,9.90
2022-12-25T19:41:42.203Z,9.90
2022-12-25T19:44:10.937Z,10.00
2022-12-25T19:46:41.722Z,10.00
2022-12-25T19:49:14.584Z,10.00
2022-12-25T19:51:46.714Z,10.10
2022-12-25T19:54:20.411Z,10.10
2022-12-25T19:56:49.928Z,10.20
2022-12-25T19:59:18.470Z,10.20
2022-12-25T20:01:46.909Z,10.20
2022-12-25T20:04:18.116Z,10.20
2022-12-25T20:06:47.033Z,10.20
2022-12-25T20:09:21.047Z,10.20
2022-12-25T20:11:50.252Z,10.20
2022-12-25T20:14:19.837Z,10.20
2022-12-25T20:16:49.145Z,10.30
2022-12-25T20:19:17.496Z,10.30
2022-12-25T20:21:46.185Z,10.30
2022-12-25T20:24:16.484Z,10.30
2022-12-25T20:26:47.764Z,10.30
2022-12-25T20:29:16.673Z,10.30
2022-12-25T20:31:44.979Z,10.30
2022-12-25T20:34:13.635Z,10.30
2022-12-25T20:36:42.017Z,10.30
2022-12-25T20:39:12.789Z,10.30
2022-12-25T20:41:42.880Z,10.30
2022-12-25T20:44:13.219Z,10.30
2022-12-25T20:46:41.813Z,10.30
2022-12-25T20:49:10.122Z,10.30
2022-12-25T20:51:38.645Z,10.30
2022-12-25T20:54:09.408Z,10.30
2022-12-25T20:56:38.369Z,10.30
2022-12-25T20:59:08.071Z,10.30
2022-12-25T21:01:36.506Z,10.30
2022-12-25T21:04:05.090Z,10.30
2022-12-25T21:06:33.686Z,10.40
2022-12-25T21:09:02.230Z,10.30
2022-12-25T21:11:31.627Z,10.30
2022-12-25T21:14:02.022Z,10.40
2022-12-25T21:16:33.843Z,10.40
2022-12-25T21:19:02.395Z,10.40
2022-12-25T21:21:30.950Z,10.40
2022-12-25T21:23:59.282Z,10.40
2022-12-25T21:26:31.387Z,10.40
2022-12-25T21:29:03.528Z,10.40
2022-12-25T21:31:55.469Z,10.40
2022-12-25T21:34:23.276Z,10.40
2022-12-25T21:36:52.076Z,10.40
2022-12-25T21:39:20.708Z,10.40
2022-12-25T21:41:49.016Z,10.40
2022-12-25T21:44:17.349Z,10.40
2022-12-25T21:46:47.365Z,10.40
2022-12-25T21:49:36.357Z,10.30
2022-12-25T21:52:09.630Z,10.40
2022-12-25T21:54:38.108Z,10.30
2022-12-25T21:57:06.478Z,10.40
2022-12-25T21:59:34.834Z,10.40
2022-12-25T22:02:11.324Z,10.30
2022-12-25T22:04:40.525Z,10.30
2022-12-25T22:07:17.972Z,10.30
2022-12-25T22:09:47.805Z,10.40
2022-12-25T22:12:36.737Z,10.40
2022-12-25T22:15:07.515Z,10.40
2022-12-25T22:17:57.472Z,10.40
2022-12-25T22:20:30.189Z,10.30
2022-12-25T22:22:59.672Z,10.30
2022-12-25T22:25:28.104Z,10.30
2022-12-25T22:27:56.649Z,10.30
2022-12-25T22:30:28.163Z,10.40
2022-12-25T22:32:58.017Z,10.40
2022-12-25T22:35:26.877Z,10.40
2022-12-25T22:37:56.020Z,10.40
2022-12-25T22:40:24.553Z,10.40
2022-12-25T22:42:55.922Z,10.40
2022-12-25T22:45:24.808Z,10.40
2022-12-25T22:47:53.307Z,10.40
2022-12-25T22:50:23.302Z,10.40
2022-12-25T22:52:51.602Z,10.40
2022-12-25T22:55:21.496Z,10.40
2022-12-25T22:57:50.429Z,10.40
2022-12-25T23:00:19.150Z,10.40
2022-12-25T23:02:47.809Z,10.40
2022-12-25T23:05:16.479Z,10.40
2022-12-25T23:07:46.425Z,10.40
2022-12-25T23:10:15.303Z,10.40
2022-12-25T23:13:01.319Z,10.40
2022-12-25T23:15:29.966Z,10.40
2022-12-25T23:18:16.029Z,10.40
2022-12-25T23:21:01.476Z,10.40
2022-12-25T23:23:48.853Z,10.40
2022-12-25T23:26:20.432Z,10.40
2022-12-25T23:29:06.298Z,10.40
2022-12-25T23:31:38.284Z,10.40
2022-12-25T23:34:08.290Z,10.40
2022-12-25T23:36:36.955Z,10.40
2022-12-25T23:39:10.102Z,10.40
2022-12-25T23:41:39.643Z,10.40
2022-12-25T23:44:08.231Z,10.40
2022-12-25T23:46:37.060Z,10.40
2022-12-25T23:49:06.897Z,10.30
2022-12-25T23:51:37.548Z,10.40
2022-12-25T23:54:08.527Z,10.30
2022-12-25T23:56:37.268Z,10.30
2022-12-25T23:59:06.510Z,10.30
